createdAt,value
2022-08-24T00:01:54.743Z,1.80
2022-08-24T00:04:22.683Z,1.83
2022-08-24T00:06:50.746Z,1.80
2022-08-24T00:09:18.883Z,1.52
2022-08-24T00:11:48.369Z,1.67
2022-08-24T00:14:16.192Z,2.00
2022-08-24T00:16:44.102Z,1.50
2022-08-24T00:19:12.243Z,1.98
2022-08-24T00:21:40.173Z,2.35
2022-08-24T00:24:08.240Z,1.83
2022-08-24T00:26:36.334Z,1.40
2022-08-24T00:29:07.708Z,1.45
2022-08-24T00:31:35.763Z,1.77
2022-08-24T00:34:03.827Z,1.92
2022-08-24T00:36:31.920Z,1.75
2022-08-24T00:39:00.634Z,1.70
2022-08-24T00:41:29.640Z,1.52
2022-08-24T00:44:03.176Z,1.95
2022-08-24T00:46:43.691Z,1.67
2022-08-24T00:49:20.314Z,1.80
2022-08-24T00:51:57.433Z,1.63
2022-08-24T00:54:29.644Z,2.00
2022-08-24T00:57:05.290Z,1.60
2022-08-24T00:59:44.452Z,1.20
2022-08-24T01:02:19.821Z,1.70
2022-08-24T01:04:56.168Z,2.28
2022-08-24T01:07:26.822Z,2.00
2022-08-24T01:09:59.319Z,1.85
2022-08-24T01:12:30.905Z,2.10
2022-08-24T01:15:02.949Z,2.13
2022-08-24T01:17:50.341Z,2.30
2022-08-24T01:20:19.095Z,2.05
2022-08-24T01:23:01.265Z,2.22
2022-08-24T01:25:33.630Z,1.80
2022-08-24T01:28:07.689Z,2.08
2022-08-24T01:30:36.917Z,1.90
2022-08-24T01:33:08.351Z,1.95
2022-08-24T01:35:39.489Z,2.00
2022-08-24T01:38:12.213Z,1.75
2022-08-24T01:40:47.507Z,1.80
2022-08-24T01:43:16.017Z,2.10
2022-08-24T01:45:44.451Z,2.10
2022-08-24T01:48:13.722Z,1.80
2022-08-24T01:50:41.630Z,1.60
2022-08-24T01:53:10.799Z,1.90
2022-08-24T01:55:38.740Z,2.15
2022-08-24T01:58:08.534Z,1.88
2022-08-24T02:00:37.972Z,1.90
2022-08-24T02:03:06.753Z,1.63
2022-08-24T02:05:36.275Z,2.05
2022-08-24T02:08:05.217Z,1.90
2022-08-24T02:10:35.115Z,1.90
2022-08-24T02:13:04.258Z,2.08
2022-08-24T02:15:39.644Z,1.88
2022-08-24T02:18:15.320Z,1.83
2022-08-24T02:20:44.877Z,1.70
2022-08-24T02:23:12.912Z,1.80
2022-08-24T02:25:40.827Z,1.83
2022-08-24T02:28:08.770Z,2.05
2022-08-24T02:30:37.917Z,1.90
2022-08-24T02:33:05.636Z,1.40
2022-08-24T02:35:33.705Z,1.83
2022-08-24T02:38:01.515Z,1.73
2022-08-24T02:40:29.829Z,1.95
2022-08-24T02:42:57.766Z,2.03
2022-08-24T02:45:25.819Z,1.75
2022-08-24T02:47:55.034Z,1.55
2022-08-24T02:50:23.452Z,1.50
2022-08-24T02:52:51.283Z,2.10
2022-08-24T02:55:20.713Z,1.75
2022-08-24T02:57:49.412Z,1.60
2022-08-24T03:00:21.842Z,2.03
2022-08-24T03:02:50.082Z,1.88
2022-08-24T03:05:20.172Z,2.00
2022-08-24T03:07:48.657Z,1.50
2022-08-24T03:10:17.358Z,1.80
2022-08-24T03:12:45.463Z,1.70
2022-08-24T03:15:14.394Z,1.67
2022-08-24T03:17:42.924Z,1.80
2022-08-24T03:20:15.274Z,1.90
2022-08-24T03:22:46.156Z,2.10
2022-08-24T03:25:17.788Z,2.05
2022-08-24T03:27:45.696Z,1.73
2022-08-24T03:30:17.484Z,2.00
2022-08-24T03:32:45.285Z,2.28
2022-08-24T03:35:15.129Z,1.98
2022-08-24T03:37:44.965Z,2.13
2022-08-24T03:40:22.469Z,1.80
2022-08-24T03:42:54.131Z,2.20
2022-08-24T03:45:23.435Z,1.73
2022-08-24T03:47:51.948Z,1.90
2022-08-24T03:50:21.603Z,2.28
2022-08-24T03:52:50.996Z,1.85
2022-08-24T03:55:19.667Z,2.13
2022-08-24T03:57:47.397Z,1.50
2022-08-24T04:00:16.605Z,1.90
2022-08-24T04:02:44.929Z,1.40
2022-08-24T04:05:14.133Z,1.92
2022-08-24T04:07:42.330Z,1.90
2022-08-24T04:10:14.436Z,1.80
2022-08-24T04:12:42.221Z,1.90
2022-08-24T04:15:12.286Z,1.60
2022-08-24T04:17:40.025Z,1.63
2022-08-24T04:20:09.497Z,1.38
2022-08-24T04:22:37.688Z,2.20
2022-08-24T04:25:09.318Z,1.70
2022-08-24T04:27:41.823Z,1.75
2022-08-24T04:30:14.034Z,1.45
2022-08-24T04:32:43.025Z,2.08
2022-08-24T04:35:11.793Z,1.83
2022-08-24T04:37:39.601Z,1.73
2022-08-24T04:40:09.421Z,1.50
2022-08-24T04:42:37.327Z,1.90
2022-08-24T04:45:07.790Z,1.85
2022-08-24T04:47:35.559Z,1.90
2022-08-24T04:50:03.317Z,2.10
2022-08-24T04:52:31.096Z,1.88
2022-08-24T04:54:59.007Z,2.00
2022-08-24T04:57:26.890Z,2.25
2022-08-24T04:59:57.390Z,2.25
2022-08-24T05:02:26.909Z,1.75
2022-08-24T05:04:55.225Z,1.90
2022-08-24T05:07:23.008Z,1.83
2022-08-24T05:09:52.437Z,1.52
2022-08-24T05:12:20.931Z,1.55
2022-08-24T05:14:48.666Z,1.55
2022-08-24T05:17:16.479Z,1.75
2022-08-24T05:19:45.760Z,2.15
2022-08-24T05:22:13.572Z,2.33
2022-08-24T05:24:41.398Z,2.20
2022-08-24T05:27:09.201Z,1.88
2022-08-24T05:29:40.178Z,1.67
2022-08-24T05:32:07.982Z,1.98
2022-08-24T05:34:36.389Z,1.67
2022-08-24T05:37:05.840Z,1.83
2022-08-24T05:39:33.691Z,2.30
2022-08-24T05:42:01.622Z,2.03
2022-08-24T05:44:31.479Z,2.15
2022-08-24T05:47:00.978Z,2.08
2022-08-24T05:49:29.120Z,1.98
2022-08-24T05:51:56.938Z,1.70
2022-08-24T05:54:26.381Z,1.77
2022-08-24T05:56:54.688Z,2.03
2022-08-24T05:59:22.644Z,2.45
2022-08-24T06:01:50.651Z,2.30
2022-08-24T06:04:18.458Z,2.30
2022-08-24T06:06:48.594Z,1.90
2022-08-24T06:09:17.322Z,1.75
2022-08-24T06:11:47.528Z,1.80
2022-08-24T06:14:17.760Z,1.80
2022-08-24T06:16:48.525Z,1.42
2022-08-24T06:19:19.902Z,1.65
2022-08-24T06:21:52.403Z,1.85
2022-08-24T06:24:42.173Z,2.20
2022-08-24T06:27:23.176Z,1.88
2022-08-24T06:29:53.947Z,2.10
2022-08-24T06:32:23.126Z,1.73
2022-08-24T06:34:51.258Z,1.95
2022-08-24T06:37:19.254Z,2.15
2022-08-24T06:39:48.155Z,2.30
2022-08-24T06:42:25.442Z,1.95
2022-08-24T06:44:53.712Z,2.28
2022-08-24T06:47:22.031Z,1.50
2022-08-24T06:49:50.071Z,1.95
2022-08-24T06:52:17.808Z,1.83
2022-08-24T06:54:45.644Z,1.92
2022-08-24T06:57:13.386Z,2.50
2022-08-24T06:59:43.046Z,2.38
2022-08-24T07:02:12.857Z,2.20
2022-08-24T07:04:40.760Z,1.98
2022-08-24T07:07:08.543Z,2.25
2022-08-24T07:09:36.379Z,2.13
2022-08-24T07:12:05.313Z,1.95
2022-08-24T07:14:33.084Z,2.65
2022-08-24T07:17:02.194Z,2.10
2022-08-24T07:19:30.233Z,2.25
2022-08-24T07:21:59.829Z,2.40
2022-08-24T07:24:27.917Z,1.85
2022-08-24T07:26:56.230Z,2.28
2022-08-24T07:29:46.224Z,2.47
2022-08-24T07:32:13.377Z,2.35
2022-08-24T07:34:41.221Z,2.45
2022-08-24T07:37:09.158Z,2.40
2022-08-24T07:39:36.954Z,2.58
2022-08-24T07:42:15.005Z,2.15
2022-08-24T07:44:45.220Z,2.28
2022-08-24T07:47:37.022Z,2.42
2022-08-24T07:50:02.351Z,2.30
2022-08-24T07:52:31.223Z,2.70
2022-08-24T07:54:59.534Z,2.72
2022-08-24T07:57:28.042Z,2.75
2022-08-24T07:59:55.932Z,2.78
2022-08-24T08:02:25.084Z,2.83
2022-08-24T08:05:01.467Z,2.95
2022-08-24T08:07:30.962Z,2.72
2022-08-24T08:09:59.094Z,3.13
2022-08-24T08:12:26.929Z,3.08
2022-08-24T08:14:54.912Z,2.92
2022-08-24T08:17:22.674Z,2.90
2022-08-24T08:19:51.911Z,3.08
2022-08-24T08:22:37.681Z,2.80
2022-08-24T08:25:08.045Z,2.78
2022-08-24T08:27:36.179Z,2.45
2022-08-24T08:30:06.233Z,2.70
2022-08-24T08:32:34.464Z,2.63
2022-08-24T08:35:03.746Z,2.83
2022-08-24T08:37:32.074Z,2.85
2022-08-24T08:40:00.288Z,2.85
2022-08-24T08:42:42.454Z,2.75
2022-08-24T08:45:26.583Z,2.92
2022-08-24T08:48:47.936Z,2.70
2022-08-24T08:52:24.470Z,2.38
2022-08-24T08:55:05.032Z,2.97
2022-08-24T08:58:00.546Z,3.15
2022-08-24T09:00:51.320Z,3.00
2022-08-24T09:03:54.171Z,2.67
2022-08-24T09:06:54.514Z,2.58
2022-08-24T09:09:47.014Z,2.83
2022-08-24T09:12:32.269Z,2.42
2022-08-24T09:15:21.478Z,2.83
2022-08-24T09:18:21.965Z,3.00
2022-08-24T09:21:15.029Z,2.90
2022-08-24T09:24:01.218Z,3.00
2022-08-24T09:26:33.416Z,3.47
2022-08-24T09:29:16.400Z,3.30
2022-08-24T09:32:22.240Z,3.20
2022-08-24T09:35:01.446Z,2.90
2022-08-24T09:37:49.481Z,2.78
2022-08-24T09:40:37.450Z,2.90
2022-08-24T09:43:47.990Z,2.60
2022-08-24T09:47:10.181Z,2.13
2022-08-24T09:50:25.571Z,2.10
2022-08-24T09:56:24.714Z,2.25
2022-08-24T09:59:25.144Z,2.60
2022-08-24T10:02:18.774Z,2.38
2022-08-24T10:05:00.647Z,2.60
2022-08-24T10:07:43.134Z,2.38
2022-08-24T10:10:25.554Z,2.50
2022-08-24T10:13:11.473Z,2.03
2022-08-24T10:15:51.977Z,2.90
2022-08-24T10:18:51.352Z,2.67
2022-08-24T10:21:36.752Z,2.42
2022-08-24T10:24:29.623Z,2.40
2022-08-24T10:27:18.540Z,2.13
2022-08-24T10:30:23.653Z,2.30
2022-08-24T10:33:16.544Z,2.17
2022-08-24T10:36:21.208Z,2.63
2022-08-24T10:39:08.922Z,2.20
2022-08-24T10:42:58.897Z,2.00
2022-08-24T10:46:10.538Z,2.42
2022-08-24T10:49:45.168Z,2.70
2022-08-24T10:53:06.036Z,2.00
2022-08-24T10:55:36.695Z,2.55
2022-08-24T10:58:35.035Z,2.25
2022-08-24T11:01:27.521Z,1.98
2022-08-24T11:04:03.137Z,2.63
2022-08-24T11:06:34.642Z,2.17
2022-08-24T11:09:10.009Z,2.30
2022-08-24T11:11:41.574Z,2.05
2022-08-24T11:14:25.947Z,2.45
2022-08-24T11:17:15.146Z,1.67
2022-08-24T11:19:43.435Z,1.73
2022-08-24T11:22:31.169Z,2.10
2022-08-24T11:25:02.794Z,2.05
2022-08-24T11:27:39.087Z,2.08
2022-08-24T11:30:15.666Z,1.83
2022-08-24T11:32:52.160Z,2.22
2022-08-24T11:35:27.000Z,2.10
2022-08-24T11:37:59.138Z,1.70
2022-08-24T11:40:31.480Z,1.90
2022-08-24T11:43:18.236Z,2.03
2022-08-24T11:46:04.378Z,1.92
2022-08-24T11:48:51.826Z,1.88
2022-08-24T11:51:36.481Z,2.08
2022-08-24T11:54:19.286Z,2.22
2022-08-24T11:57:04.000Z,2.10
2022-08-24T11:59:50.406Z,2.08
2022-08-24T12:02:27.764Z,1.77
2022-08-24T12:05:07.922Z,1.52
2022-08-24T12:07:56.162Z,1.50
2022-08-24T12:10:38.218Z,1.60
2022-08-24T12:13:21.541Z,2.08
2022-08-24T12:16:01.327Z,1.92
2022-08-24T12:18:42.458Z,1.83
2022-08-24T12:21:14.989Z,1.65
2022-08-24T12:23:48.347Z,1.60
2022-08-24T12:26:27.571Z,2.00
2022-08-24T12:29:02.264Z,2.05
2022-08-24T12:31:42.401Z,1.73
2022-08-24T12:34:19.339Z,1.73
2022-08-24T12:37:15.927Z,1.38
2022-08-24T12:39:56.540Z,1.77
2022-08-24T12:42:37.517Z,1.73
2022-08-24T12:45:14.091Z,1.65
2022-08-24T12:47:53.421Z,1.38
2022-08-24T12:50:31.534Z,1.27
2022-08-24T12:53:33.858Z,1.58
2022-08-24T12:57:08.478Z,1.10
2022-08-24T12:59:44.546Z,1.55
2022-08-24T13:02:36.527Z,1.77
2022-08-24T13:05:16.620Z,1.27
2022-08-24T13:07:48.595Z,1.65
2022-08-24T13:10:40.107Z,1.63
2022-08-24T13:13:39.584Z,1.60
2022-08-24T13:16:10.746Z,1.40
2022-08-24T13:19:08.802Z,1.55
2022-08-24T13:21:46.567Z,1.58
2022-08-24T13:25:00.424Z,1.30
2022-08-24T13:31:26.738Z,1.73
2022-08-24T13:34:01.112Z,1.20
2022-08-24T13:37:11.604Z,1.65
2022-08-24T13:39:59.321Z,1.42
2022-08-24T13:43:13.862Z,1.23
2022-08-24T13:45:50.962Z,0.95
2022-08-24T13:48:44.974Z,1.40
2022-08-24T13:51:39.743Z,1.70
2022-08-24T13:54:25.604Z,1.60
2022-08-24T13:57:10.202Z,1.65
2022-08-24T14:00:02.656Z,1.40
2022-08-24T14:02:43.672Z,1.65
2022-08-24T14:05:33.166Z,1.20
2022-08-24T14:08:31.887Z,1.60
2022-08-24T14:11:10.809Z,1.25
2022-08-24T14:14:06.375Z,1.70
2022-08-24T14:17:07.485Z,1.45
2022-08-24T14:20:03.254Z,1.25
2022-08-24T14:22:41.090Z,0.88
2022-08-24T14:25:22.038Z,1.15
2022-08-24T14:28:11.876Z,1.25
2022-08-24T14:30:54.252Z,1.00
2022-08-24T14:33:34.539Z,1.33
2022-08-24T14:36:21.696Z,1.20
2022-08-24T14:39:07.427Z,1.08
2022-08-24T14:41:51.120Z,1.48
2022-08-24T14:44:36.489Z,1.00
2022-08-24T14:47:20.222Z,1.75
2022-08-24T14:50:11.980Z,1.17
2022-08-24T14:52:57.399Z,1.00
2022-08-24T14:55:39.412Z,1.50
2022-08-24T14:58:21.453Z,1.10
2022-08-24T15:01:26.173Z,1.27
2022-08-24T15:04:37.617Z,1.48
2022-08-24T15:07:33.090Z,1.35
2022-08-24T15:10:03.473Z,1.30
2022-08-24T15:12:39.812Z,1.35
2022-08-24T15:15:15.163Z,1.00
2022-08-24T15:17:58.431Z,1.10
2022-08-24T15:21:03.729Z,1.33
2022-08-24T15:23:58.052Z,1.08
2022-08-24T15:26:40.999Z,0.90
2022-08-24T15:29:15.090Z,1.52
2022-08-24T15:31:44.363Z,1.10
2022-08-24T15:34:12.300Z,1.17
2022-08-24T15:36:41.622Z,1.20
2022-08-24T15:39:09.419Z,1.15
2022-08-24T15:41:42.931Z,1.30
2022-08-24T15:44:23.299Z,1.27
2022-08-24T15:46:57.359Z,1.10
2022-08-24T15:49:34.170Z,1.48
2022-08-24T15:52:07.813Z,1.38
2022-08-24T15:54:43.887Z,0.80
2022-08-24T15:57:30.374Z,1.63
2022-08-24T16:00:10.615Z,1.13
2022-08-24T16:02:38.716Z,1.40
2022-08-24T16:05:21.339Z,0.70
2022-08-24T16:08:13.272Z,1.50
2022-08-24T16:10:44.879Z,1.40
2022-08-24T16:13:28.149Z,1.08
2022-08-24T16:16:05.950Z,1.00
2022-08-24T16:18:51.970Z,1.10
2022-08-24T16:21:28.609Z,1.33
2022-08-24T16:24:09.838Z,1.10
2022-08-24T16:26:57.831Z,1.25
2022-08-24T16:29:55.744Z,1.10
2022-08-24T16:32:33.743Z,1.30
2022-08-24T16:35:21.530Z,1.00
2022-08-24T16:37:49.548Z,1.10
2022-08-24T16:40:19.785Z,3.05
2022-08-24T16:42:47.793Z,2.67
2022-08-24T16:45:20.314Z,3.00
2022-08-24T16:47:49.260Z,3.30
2022-08-24T16:50:21.182Z,2.15
2022-08-24T16:52:50.214Z,2.20
2022-08-24T16:55:19.901Z,2.50
2022-08-24T16:57:48.109Z,2.03
2022-08-24T17:00:19.262Z,1.95
2022-08-24T17:02:48.439Z,1.65
2022-08-24T17:05:17.732Z,1.27
2022-08-24T17:07:46.121Z,2.00
2022-08-24T17:10:18.410Z,1.50
2022-08-24T17:12:47.746Z,1.67
2022-08-24T17:15:17.158Z,1.13
2022-08-24T17:17:55.895Z,1.70
2022-08-24T17:20:23.986Z,1.77
2022-08-24T17:22:51.774Z,2.05
2022-08-24T17:25:19.572Z,1.30
2022-08-24T17:27:49.084Z,1.48
2022-08-24T17:30:18.391Z,1.95
2022-08-24T17:32:47.775Z,1.20
2022-08-24T17:35:16.175Z,0.95
2022-08-24T17:37:44.506Z,1.15
2022-08-24T17:40:16.363Z,1.35
2022-08-24T17:42:51.282Z,1.45
2022-08-24T17:45:23.297Z,1.08
2022-08-24T17:47:53.448Z,0.82
2022-08-24T17:50:24.114Z,1.00
2022-08-24T17:52:58.963Z,1.38
2022-08-24T17:55:29.540Z,2.05
2022-08-24T17:57:58.164Z,1.50
2022-08-24T18:00:27.277Z,1.75
2022-08-24T18:02:55.455Z,1.20
2022-08-24T18:05:23.825Z,1.10
2022-08-24T18:07:55.455Z,1.42
2022-08-24T18:10:27.862Z,1.95
2022-08-24T18:12:55.944Z,1.92
2022-08-24T18:15:35.353Z,1.67
2022-08-24T18:18:09.755Z,1.17
2022-08-24T18:20:41.537Z,1.30
2022-08-24T18:23:11.582Z,1.40
2022-08-24T18:25:45.446Z,1.27
2022-08-24T18:28:16.058Z,1.75
2022-08-24T18:30:44.601Z,1.60
2022-08-24T18:33:13.961Z,1.00
2022-08-24T18:35:41.958Z,1.02
2022-08-24T18:38:09.879Z,1.38
2022-08-24T18:40:38.014Z,1.30
2022-08-24T18:43:06.152Z,1.27
2022-08-24T18:45:35.110Z,0.95
2022-08-24T18:48:03.577Z,1.15
2022-08-24T18:50:36.763Z,1.25
2022-08-24T18:53:06.710Z,1.58
2022-08-24T18:55:34.510Z,1.40
2022-08-24T18:58:02.531Z,1.30
2022-08-24T19:00:30.366Z,1.70
2022-08-24T19:03:05.110Z,1.50
2022-08-24T19:05:34.535Z,1.60
2022-08-24T19:08:02.354Z,1.63
2022-08-24T19:10:35.662Z,1.50
2022-08-24T19:13:09.137Z,1.50
2022-08-24T19:15:39.622Z,2.03
2022-08-24T19:18:09.505Z,2.28
2022-08-24T19:20:46.045Z,1.95
2022-08-24T19:23:22.272Z,1.80
2022-08-24T19:25:51.383Z,1.63
2022-08-24T19:28:20.677Z,1.58
2022-08-24T19:30:49.611Z,1.40
2022-08-24T19:33:25.616Z,1.90
2022-08-24T19:35:55.477Z,1.65
2022-08-24T19:38:26.041Z,1.60
2022-08-24T19:40:57.004Z,1.73
2022-08-24T19:43:27.134Z,1.52
2022-08-24T19:46:03.033Z,1.65
2022-08-24T19:48:32.668Z,1.85
2022-08-24T19:51:04.090Z,1.33
2022-08-24T19:53:35.182Z,2.22
2022-08-24T19:56:03.902Z,1.67
2022-08-24T19:58:44.095Z,1.35
2022-08-24T20:01:18.992Z,2.13
2022-08-24T20:03:46.888Z,2.42
2022-08-24T20:06:18.040Z,2.30
2022-08-24T20:08:48.279Z,1.75
2022-08-24T20:11:18.097Z,1.67
2022-08-24T20:13:47.279Z,1.77
2022-08-24T20:16:20.768Z,1.48
2022-08-24T20:18:49.179Z,1.45
2022-08-24T20:21:18.366Z,1.45
2022-08-24T20:23:46.339Z,1.52
2022-08-24T20:26:15.750Z,1.77
2022-08-24T20:28:47.942Z,1.45
2022-08-24T20:31:16.856Z,1.63
2022-08-24T20:33:44.691Z,2.28
2022-08-24T20:36:25.208Z,1.90
2022-08-24T20:38:55.432Z,1.80
2022-08-24T20:41:24.556Z,2.00
2022-08-24T20:43:52.408Z,1.65
2022-08-24T20:46:21.488Z,1.55
2022-08-24T20:48:55.297Z,1.52
2022-08-24T20:51:25.929Z,1.48
2022-08-24T20:53:54.290Z,1.50
2022-08-24T20:56:30.937Z,1.80
2022-08-24T20:58:59.439Z,1.73
2022-08-24T21:01:27.240Z,1.50
2022-08-24T21:03:55.068Z,1.35
2022-08-24T21:06:23.357Z,1.52
2022-08-24T21:08:54.476Z,1.30
2022-08-24T21:11:22.328Z,1.33
2022-08-24T21:13:50.256Z,1.50
2022-08-24T21:16:18.501Z,1.73
2022-08-24T21:18:46.895Z,1.90
2022-08-24T21:21:15.075Z,1.50
2022-08-24T21:23:43.431Z,1.88
2022-08-24T21:26:18.079Z,1.55
2022-08-24T21:28:45.929Z,1.48
2022-08-24T21:31:13.860Z,1.38
2022-08-24T21:33:59.166Z,1.88
2022-08-24T21:36:31.746Z,1.40
2022-08-24T21:39:00.459Z,1.63
2022-08-24T21:41:29.747Z,1.55
2022-08-24T21:43:58.256Z,1.70
2022-08-24T21:46:32.887Z,1.70
2022-08-24T21:49:01.902Z,1.65
2022-08-24T21:51:30.276Z,1.83
2022-08-24T21:53:59.911Z,1.98
2022-08-24T21:56:33.605Z,1.65
2022-08-24T21:59:02.720Z,1.87
2022-08-24T22:01:30.586Z,1.90
2022-08-24T22:03:59.140Z,1.80
2022-08-24T22:06:31.337Z,2.17
2022-08-24T22:08:59.850Z,1.80
2022-08-24T22:11:29.928Z,1.75
2022-08-24T22:13:58.803Z,1.83
2022-08-24T22:16:26.812Z,1.92
2022-08-24T22:18:55.273Z,1.83
2022-08-24T22:21:30.240Z,1.65
2022-08-24T22:23:59.067Z,1.90
2022-08-24T22:26:30.104Z,1.90
2022-08-24T22:28:58.478Z,1.65
2022-08-24T22:31:30.070Z,1.48
2022-08-24T22:34:01.562Z,1.98
2022-08-24T22:36:29.915Z,1.48
2022-08-24T22:38:59.862Z,2.13
2022-08-24T22:41:30.968Z,1.90
2022-08-24T22:44:18.549Z,1.95
2022-08-24T22:46:46.749Z,1.80
2022-08-24T22:49:14.729Z,2.03
2022-08-24T22:51:43.123Z,1.83
2022-08-24T22:54:12.270Z,1.58
2022-08-24T22:56:44.973Z,1.52
2022-08-24T22:59:17.878Z,1.90
2022-08-24T23:01:49.317Z,1.88
2022-08-24T23:04:23.212Z,1.75
2022-08-24T23:06:51.974Z,1.83
2022-08-24T23:09:20.009Z,1.95
2022-08-24T23:11:49.192Z,2.03
2022-08-24T23:14:17.022Z,2.20
2022-08-24T23:16:48.615Z,1.70
2022-08-24T23:19:36.266Z,1.90
2022-08-24T23:22:06.531Z,1.52
2022-08-24T23:24:34.858Z,2.00
2022-08-24T23:27:06.113Z,1.90
2022-08-24T23:29:36.164Z,2.08
2022-08-24T23:32:05.318Z,2.15
2022-08-24T23:34:34.279Z,1.98
2022-08-24T23:37:02.655Z,1.63
2022-08-24T23:39:30.993Z,2.00
2022-08-24T23:41:58.900Z,1.60
2022-08-24T23:44:30.554Z,2.03
2022-08-24T23:46:59.245Z,1.92
2022-08-24T23:49:29.268Z,2.08
2022-08-24T23:51:59.488Z,2.10
2022-08-24T23:54:28.146Z,1.80
2022-08-24T23:56:57.888Z,1.42
2022-08-24T23:59:30.394Z,1.92
